Accueil
METAR-TAF:

METAR-TAF

Aéroports :

Aéroport international de Bagdad

Bagdad, Irak

latitude: 33-15-45N, longitude: 44-14-04E, altitude: 35 m

Observation

Le bulletin a été fait il y a 22 minutes, à 08:00 UTC
Vent 3 kt de ouest/nord-ouest, variant entre ouest/sud-ouest et nord/nord-ouest
Température 13°C
Humidité 51%
Pression 1021 hPa
Visibilité: 9000 m

METAR: ORBI 230800Z 30003KT 240V340 9000 NSC 13/03 Q1021 NOSIG

Heure: 11:22 (08:22 UTC)

Prévision

Le bulletin a été fait il y a 10 heures et 22 minutes, à 22:00 UTC
Prévision valable du 23 à 00 UTC au 23 à 24 UTC
Vent 3 kt de direction variable
Visibilité: 8000 m
Nuages épars à une hauteur de 3000 ft

TAF: ORBI 222200Z 2300/2324 VRB03KT 8000 SCT030

Observations et prévisions météorologiques de plus de 4000 aéroports (messages METAR et TAF).

Les stations disponibles sont représentées par des disques jaunes et rouges sur la carte.

Passer la souris dessus pour voir le nom de la station.

Cliquer dessus pour voir les observations et prévisions météorologiques.

Pour changer de carte: cliquez sur les boutons verts avec une croix noire pour zoomer, sur le bouton vert avec un tiret pour effectuer un zoom arrière, ou sur les flèches vertes pour les cartes adjacentes.


METAR-TAF: